Time;durP1;ratioP1;P1;durP2;ratioP2;P2;SDS_P1;SDS_P2;PMS_P1;PMS_P2;Temp;Humidity;BMP_temperature;BMP_pressure;BME280_temperature;BME280_humidity;BME280_pressure;Samples;Min_cycle;Max_cycle;Signal;HPM_P1;HPM_P2
2022/01/23 00:00:15;;;;;;;16.52;7.95;;;5.60;99.90;;;;;;5072221;28;20039;-89
2022/01/23 00:02:41;;;;;;;18.73;8.38;;;5.50;99.90;;;;;;5076363;28;20039;-89
2022/01/23 00:05:08;;;;;;;17.58;8.02;;;5.50;99.90;;;;;;5076462;28;20402;-90
2022/01/23 00:07:34;;;;;;;15.88;7.10;;;5.50;99.90;;;;;;5075961;28;20084;-90
2022/01/23 00:10:01;;;;;;;14.80;7.63;;;5.50;99.90;;;;;;5075896;28;20049;-90
2022/01/23 00:12:30;;;;;;;26.98;8.25;;;5.50;99.90;;;;;;5093278;28;20044;-90
2022/01/23 00:17:40;;;;;;;;;;;5.50;99.90;;;;;;5093671;28;20051;-90
2022/01/23 00:20:13;;;;;;;16.08;7.22;;;5.60;99.90;;;;;;5075807;28;20426;-90
2022/01/23 00:22:47;;;;;;;16.48;7.32;;;5.60;99.90;;;;;;5075231;28;20078;-90
2022/01/23 00:30:44;;;;;;;17.70;7.82;;;5.60;99.90;;;;;;5092561;28;20067;-90
2022/01/23 00:33:11;;;;;;;21.27;7.18;;;5.50;99.90;;;;;;5076073;28;20162;-90
2022/01/23 00:35:38;;;;;;;17.13;7.53;;;5.60;99.90;;;;;;5076075;28;20490;-90
2022/01/23 00:38:05;;;;;;;15.80;7.20;;;5.70;99.90;;;;;;5075186;28;20485;-90
2022/01/23 00:40:33;;;;;;;18.88;8.13;;;5.60;99.90;;;;;;5067578;28;20044;-89
2022/01/23 00:43:00;;;;;;;20.60;8.32;;;5.60;99.90;;;;;;5066944;28;20127;-90
2022/01/23 00:45:35;;;;;;;18.70;7.88;;;5.60;99.90;;;;;;5075304;28;20051;-89
2022/01/23 00:48:08;;;;;;;17.80;8.05;;;5.60;99.90;;;;;;5075297;28;20794;-90
2022/01/23 00:50:37;;;;;;;19.88;8.60;;;5.50;99.90;;;;;;5092633;28;20473;-90
2022/01/23 00:53:08;;;;;;;18.88;8.10;;;5.50;99.90;;;;;;5075005;28;20088;-90
2022/01/23 00:55:34;;;;;;;16.83;7.68;;;5.60;99.90;;;;;;5075498;28;20082;-90
2022/01/23 00:57:59;;;;;;;18.85;8.05;;;5.60;99.90;;;;;;5071013;28;20068;-89
2022/01/23 01:00:25;;;;;;;18.95;7.78;;;5.60;99.90;;;;;;5075362;28;20048;-89
2022/01/23 01:02:51;;;;;;;21.10;7.75;;;5.60;99.90;;;;;;5074818;28;20039;-89
2022/01/23 01:05:17;;;;;;;18.00;7.70;;;5.60;99.90;;;;;;5074954;28;20467;-90
2022/01/23 01:07:43;;;;;;;18.27;7.97;;;5.70;99.90;;;;;;5070871;28;20075;-90
2022/01/23 01:10:18;;;;;;;23.30;8.23;;;5.70;99.90;;;;;;5074902;28;20081;-90
2022/01/23 01:12:46;;;;;;;17.70;7.97;;;5.70;99.90;;;;;;5075071;28;20035;-90
2022/01/23 01:31:37;;;;;;;21.02;8.48;;;5.60;99.90;;;;;;5090854;28;20043;-90
2022/01/23 01:34:11;;;;;;;24.27;8.68;;;5.60;99.90;;;;;;5074683;28;20696;-90
2022/01/23 01:36:46;;;;;;;;;;;5.50;99.90;;;;;;5074490;28;20043;-88
2022/01/23 01:39:17;;;;;;;26.55;9.65;;;5.60;99.90;;;;;;5074847;28;19919;-90
2022/01/23 01:41:44;;;;;;;20.58;7.53;;;5.60;99.90;;;;;;5074100;28;20043;-89
2022/01/23 01:44:11;;;;;;;18.30;7.97;;;5.60;99.90;;;;;;5074271;28;20047;-90
2022/01/23 01:46:36;;;;;;;20.98;8.93;;;5.60;99.90;;;;;;5074748;28;20055;-90
2022/01/23 01:49:03;;;;;;;21.33;8.95;;;5.70;99.90;;;;;;5074358;28;20481;-89
2022/01/23 01:51:31;;;;;;;18.55;8.27;;;5.70;99.90;;;;;;5068465;28;20048;-90
2022/01/23 01:54:06;;;;;;;14.75;8.35;;;5.60;99.90;;;;;;5074259;28;20043;-89
2022/01/23 01:56:39;;;;;;;21.15;8.90;;;5.60;99.90;;;;;;5074398;28;20101;-90
2022/01/23 02:12:23;;;;;;;20.55;8.68;;;5.50;99.90;;;;;;5090973;28;20051;-90
2022/01/23 02:50:35;;;;;;;21.75;8.13;;;5.50;99.90;;;;;;4990158;28;20049;-89
2022/01/23 02:55:46;;;;;;;20.77;8.23;;;5.60;99.90;;;;;;5094411;28;19919;-90
2022/01/23 02:58:14;;;;;;;18.15;8.55;;;5.50;99.90;;;;;;5078083;28;20098;-90
2022/01/23 03:00:49;;;;;;;20.83;8.82;;;5.50;99.90;;;;;;5077667;28;20039;-90
2022/01/23 03:03:22;;;;;;;18.73;8.63;;;5.50;99.90;;;;;;5077431;28;20048;-90
2022/01/23 03:06:09;;;;;;;26.80;10.00;;;5.50;99.90;;;;;;5077575;28;20050;-90
2022/01/23 03:09:01;;;;;;;23.23;9.07;;;5.50;99.90;;;;;;5111150;28;20076;-90
2022/01/23 03:12:13;;;;;;;22.27;9.02;;;5.50;99.90;;;;;;5094402;28;20051;-90
2022/01/23 03:28:03;;;;;;;21.20;10.35;;;5.50;99.90;;;;;;5110582;28;20105;-90
2022/01/23 03:30:27;;;;;;;22.73;9.85;;;5.50;99.90;;;;;;5094053;28;20059;-89
2022/01/23 03:32:54;;;;;;;24.67;10.68;;;5.50;99.90;;;;;;5076693;28;20040;-90
2022/01/23 03:35:21;;;;;;;21.17;9.57;;;5.50;99.90;;;;;;5094091;28;20123;-89
2022/01/23 03:37:48;;;;;;;21.10;10.07;;;5.50;99.90;;;;;;5076672;28;20093;-89
2022/01/23 03:40:15;;;;;;;27.35;10.90;;;5.50;99.90;;;;;;5076994;28;20127;-90
2022/01/23 03:42:42;;;;;;;22.42;9.90;;;5.50;99.90;;;;;;5057991;28;20408;-89
2022/01/23 03:49:31;;;;;;;21.42;10.27;;;5.50;99.90;;;;;;5073248;28;20052;-90
2022/01/23 03:50:47;;;;;;;28.67;10.48;;;5.50;99.90;;;;;;5077305;28;20443;-90
2022/01/23 03:53:14;;;;;;;21.35;9.98;;;5.40;99.90;;;;;;5093381;28;20155;-90
2022/01/23 03:55:39;;;;;;;26.45;10.13;;;5.40;99.90;;;;;;5076397;28;20040;-91
2022/01/23 03:58:05;;;;;;;24.67;10.48;;;5.40;99.90;;;;;;5056226;28;20455;-90
2022/01/23 04:00:32;;;;;;;25.35;10.35;;;5.40;99.90;;;;;;5062663;28;20127;-90
2022/01/23 04:02:57;;;;;;;28.95;10.75;;;5.40;99.90;;;;;;5092953;28;20043;-90
2022/01/23 04:05:23;;;;;;;26.02;11.45;;;5.40;99.90;;;;;;5076212;28;20096;-90
2022/01/23 04:07:49;;;;;;;28.30;11.15;;;5.40;99.90;;;;;;5092761;28;20039;-90
2022/01/23 04:10:17;;;;;;;26.27;11.15;;;5.40;99.90;;;;;;5085085;28;20039;-90
2022/01/23 04:12:51;;;;;;;29.75;11.07;;;5.40;99.90;;;;;;5085636;28;20039;-90
2022/01/23 04:15:29;;;;;;;29.58;11.38;;;5.40;99.90;;;;;;5075547;28;20047;-90
2022/01/23 04:20:45;;;;;;;;;;;5.40;99.90;;;;;;5093894;28;20048;-91
2022/01/23 04:34:26;;;;;;;25.00;11.20;;;5.50;99.90;;;;;;5094990;28;20301;-90
2022/01/23 04:45:19;;;;;;;24.80;12.18;;;5.40;99.90;;;;;;5084370;28;20035;-90
2022/01/23 05:04:17;;;;;;;22.23;10.07;;;5.40;99.90;;;;;;5076500;28;19972;-90
2022/01/23 05:06:57;;;;;;;20.00;9.60;;;5.40;99.90;;;;;;5074991;28;20389;-90
2022/01/23 05:09:22;;;;;;;23.73;10.50;;;5.40;99.90;;;;;;5075342;28;20135;-90
2022/01/23 05:11:54;;;;;;;22.70;10.43;;;5.40;99.90;;;;;;5074224;28;20512;-90
2022/01/23 05:14:27;;;;;;;23.60;10.52;;;5.40;99.90;;;;;;5076607;28;20074;-90
2022/01/23 05:16:53;;;;;;;25.67;11.30;;;5.40;99.90;;;;;;5083161;28;20198;-90
2022/01/23 05:19:19;;;;;;;21.55;10.18;;;5.40;99.90;;;;;;5078111;28;20196;-90
2022/01/23 05:24:16;;;;;;;24.52;10.10;;;5.50;99.90;;;;;;5092590;28;20044;-90
2022/01/23 05:26:44;;;;;;;26.58;10.05;;;5.50;99.90;;;;;;5077554;28;20043;-90
2022/01/23 05:29:11;;;;;;;24.50;10.10;;;5.40;99.90;;;;;;5083475;28;20051;-90
2022/01/23 05:31:37;;;;;;;23.05;10.95;;;5.40;99.90;;;;;;5091714;28;20042;-90
2022/01/23 05:34:03;;;;;;;25.23;10.70;;;5.40;99.90;;;;;;5091198;28;20040;-90
2022/01/23 05:36:28;;;;;;;21.33;9.50;;;5.40;99.90;;;;;;5085284;28;20512;-90
2022/01/23 05:38:54;;;;;;;19.75;9.30;;;5.40;99.90;;;;;;5073525;28;20051;-90
2022/01/23 05:41:20;;;;;;;23.90;10.15;;;5.40;99.90;;;;;;5076524;28;20108;-89
2022/01/23 05:43:46;;;;;;;23.13;10.30;;;5.40;99.90;;;;;;5094847;28;20055;-90
2022/01/23 05:46:11;;;;;;;20.30;9.43;;;5.40;99.90;;;;;;5090979;28;20456;-89
2022/01/23 05:48:37;;;;;;;20.55;9.57;;;5.40;99.90;;;;;;5074440;28;20088;-90
2022/01/23 05:51:05;;;;;;;22.50;9.07;;;5.40;99.90;;;;;;5082784;28;20051;-91
2022/01/23 05:53:30;;;;;;;22.83;9.23;;;5.40;99.90;;;;;;5091479;28;20090;-90
2022/01/23 05:55:56;;;;;;;20.00;9.10;;;5.40;99.90;;;;;;5073908;28;20071;-90
2022/01/23 05:58:21;;;;;;;23.10;8.98;;;5.40;99.90;;;;;;5091113;28;20070;-90
2022/01/23 06:00:47;;;;;;;16.88;9.10;;;5.40;99.90;;;;;;5082814;28;20097;-89
2022/01/23 06:03:12;;;;;;;20.55;9.07;;;5.40;99.90;;;;;;5090871;28;20554;-90
2022/01/23 06:05:38;;;;;;;23.65;8.57;;;5.40;99.90;;;;;;5074652;28;20040;-90
2022/01/23 06:08:04;;;;;;;22.40;8.93;;;5.40;99.90;;;;;;5080293;28;20547;-90
2022/01/23 06:10:36;;;;;;;16.75;8.57;;;5.40;99.90;;;;;;5073912;28;20039;-89
2022/01/23 06:13:02;;;;;;;18.95;8.95;;;5.40;99.90;;;;;;5073935;28;20077;-90
2022/01/23 06:15:28;;;;;;;23.88;9.38;;;5.40;99.90;;;;;;5073875;28;20039;-89
2022/01/23 06:17:55;;;;;;;19.85;9.18;;;5.30;99.90;;;;;;5080015;28;20039;-89
2022/01/23 06:20:20;;;;;;;20.33;8.65;;;5.40;99.90;;;;;;5062255;28;20501;-90
2022/01/23 06:22:47;;;;;;;16.38;8.50;;;5.40;99.90;;;;;;5067733;28;20505;-90
2022/01/23 06:25:14;;;;;;;21.38;8.25;;;5.40;99.90;;;;;;5068119;28;20084;-89
2022/01/23 06:27:40;;;;;;;23.05;9.05;;;5.40;99.90;;;;;;5069755;28;20494;-90
2022/01/23 06:30:07;;;;;;;23.02;8.52;;;5.30;99.90;;;;;;5067449;28;20043;-89
2022/01/23 06:32:33;;;;;;;17.05;7.90;;;5.30;99.90;;;;;;5071307;28;20094;-90
2022/01/23 06:34:58;;;;;;;22.58;8.98;;;5.30;99.90;;;;;;5071398;28;20031;-89
2022/01/23 06:37:27;;;;;;;20.08;8.52;;;5.40;99.90;;;;;;5074538;28;20092;-90
2022/01/23 06:39:53;;;;;;;18.27;8.60;;;5.30;99.90;;;;;;5068893;28;20036;-90
2022/01/23 06:42:18;;;;;;;19.73;8.80;;;5.30;99.90;;;;;;5065843;28;20036;-90
2022/01/23 06:44:44;;;;;;;20.10;9.02;;;5.40;99.90;;;;;;5076422;28;20459;-90
2022/01/23 06:47:09;;;;;;;26.83;12.80;;;5.40;99.90;;;;;;5066305;28;20052;-91
2022/01/23 06:49:35;;;;;;;31.83;14.60;;;5.40;99.90;;;;;;5083052;28;20096;-91
2022/01/23 06:52:01;;;;;;;40.70;20.30;;;5.30;99.90;;;;;;5064097;28;20048;-91
2022/01/23 06:54:28;;;;;;;19.77;11.55;;;5.40;99.90;;;;;;5060918;28;20046;-89
2022/01/23 06:56:53;;;;;;;26.75;14.13;;;5.40;99.90;;;;;;5069115;28;20043;-88
2022/01/23 06:59:19;;;;;;;35.42;20.52;;;5.40;99.90;;;;;;5076907;28;20054;-89
2022/01/23 07:01:44;;;;;;;22.55;12.27;;;5.40;99.90;;;;;;5077369;28;20040;-89
2022/01/23 07:04:10;;;;;;;27.15;13.98;;;5.40;99.90;;;;;;5077755;28;20040;-89
2022/01/23 07:06:35;;;;;;;26.67;14.77;;;5.40;99.90;;;;;;5086738;28;20654;-90
2022/01/23 07:09:01;;;;;;;22.90;12.10;;;5.40;99.90;;;;;;5066256;27;20040;-90
2022/01/23 07:11:26;;;;;;;23.65;13.65;;;5.40;99.90;;;;;;5079631;28;20440;-90
2022/01/23 07:13:52;;;;;;;19.90;11.00;;;5.40;99.90;;;;;;5057578;28;20052;-89
2022/01/23 07:16:18;;;;;;;22.77;12.00;;;5.40;99.90;;;;;;5076907;27;20035;-91
2022/01/23 07:18:43;;;;;;;20.73;12.43;;;5.40;99.90;;;;;;5060146;28;20456;-90
2022/01/23 07:21:09;;;;;;;24.33;10.75;;;5.40;99.90;;;;;;5075896;28;20047;-90
2022/01/23 07:23:34;;;;;;;17.92;9.63;;;5.40;99.90;;;;;;5078871;28;20058;-91
2022/01/23 07:26:00;;;;;;;20.75;11.38;;;5.40;99.90;;;;;;5076621;28;20478;-91
2022/01/23 07:28:36;;;;;;;22.10;10.85;;;5.40;99.90;;;;;;5076764;28;20040;-91
2022/01/23 07:31:05;;;;;;;23.23;10.80;;;5.50;99.90;;;;;;5076634;28;20043;-90
2022/01/23 07:33:33;;;;;;;22.88;10.25;;;5.40;99.90;;;;;;5077190;28;20040;-92
2022/01/23 07:35:59;;;;;;;22.92;10.48;;;5.40;99.90;;;;;;5075913;28;20047;-92
2022/01/23 07:38:25;;;;;;;28.13;11.02;;;5.40;99.90;;;;;;5076738;28;20032;-92
2022/01/23 07:40:50;;;;;;;25.33;10.48;;;5.40;99.90;;;;;;5076415;28;20050;-91
2022/01/23 07:43:16;;;;;;;21.63;10.02;;;5.40;99.90;;;;;;5076452;28;20036;-91
2022/01/23 07:45:43;;;;;;;20.98;9.80;;;5.40;99.90;;;;;;5076300;28;20144;-92
2022/01/23 07:48:09;;;;;;;17.73;9.23;;;5.50;99.90;;;;;;5057017;28;20478;-91
2022/01/23 07:50:35;;;;;;;18.77;9.55;;;5.50;99.90;;;;;;5073598;28;20044;-91
2022/01/23 07:53:00;;;;;;;19.42;9.70;;;5.50;99.90;;;;;;5090263;28;20047;-93
2022/01/23 07:55:26;;;;;;;21.88;9.50;;;5.40;99.90;;;;;;5075373;28;20047;-91
2022/01/23 07:57:53;;;;;;;19.67;9.60;;;5.50;99.90;;;;;;5076391;28;20043;-93
2022/01/23 08:00:19;;;;;;;23.05;11.27;;;5.50;99.90;;;;;;5075754;28;20446;-90
2022/01/23 08:02:46;;;;;;;22.83;11.80;;;5.50;99.90;;;;;;5093157;28;20420;-91
2022/01/23 08:05:11;;;;;;;20.40;10.38;;;5.50;99.90;;;;;;5076163;28;20447;-91
2022/01/23 08:07:38;;;;;;;28.23;12.35;;;5.50;99.90;;;;;;5072657;28;20044;-91
2022/01/23 08:10:06;;;;;;;24.15;10.77;;;5.50;99.90;;;;;;5068085;28;20036;-91
2022/01/23 08:12:32;;;;;;;21.08;9.85;;;5.50;99.90;;;;;;5084019;28;20083;-91
2022/01/23 08:14:59;;;;;;;21.25;10.13;;;5.50;99.90;;;;;;5084880;28;20533;-89
2022/01/23 08:17:25;;;;;;;19.98;9.35;;;5.50;99.90;;;;;;5093970;27;20084;-90
2022/01/23 08:19:55;;;;;;;25.63;9.98;;;5.50;99.90;;;;;;5071295;28;20482;-91
2022/01/23 08:22:22;;;;;;;24.05;10.43;;;5.50;99.90;;;;;;5064588;28;20071;-90
2022/01/23 08:24:49;;;;;;;22.50;9.93;;;5.50;99.90;;;;;;5074429;28;20052;-90
2022/01/23 08:27:14;;;;;;;21.85;9.00;;;5.60;99.90;;;;;;5075596;28;20078;-89
2022/01/23 08:29:40;;;;;;;19.77;9.70;;;5.60;99.90;;;;;;5074670;28;20071;-90
2022/01/23 08:32:07;;;;;;;15.55;8.98;;;5.70;99.90;;;;;;5076015;28;20401;-88
2022/01/23 08:34:33;;;;;;;16.45;8.75;;;5.70;99.90;;;;;;5074808;28;20078;-89
2022/01/23 08:36:58;;;;;;;25.33;9.65;;;5.70;99.90;;;;;;5074431;28;20105;-89
2022/01/23 08:39:26;;;;;;;21.33;9.45;;;5.70;99.90;;;;;;5076412;28;20039;-88
2022/01/23 08:41:52;;;;;;;21.92;9.43;;;5.70;99.90;;;;;;5075226;28;20047;-90
2022/01/23 08:44:23;;;;;;;19.48;9.13;;;5.70;99.90;;;;;;5075152;28;20043;-90
2022/01/23 08:46:49;;;;;;;28.63;11.93;;;5.70;99.90;;;;;;5073863;28;20089;-90
2022/01/23 08:49:17;;;;;;;23.15;12.02;;;5.70;99.90;;;;;;5091387;28;20441;-89
2022/01/23 08:51:44;;;;;;;36.88;16.13;;;5.70;99.90;;;;;;5074838;28;20044;-90
2022/01/23 08:54:10;;;;;;;44.13;19.10;;;5.70;99.90;;;;;;5074084;28;20036;-90
2022/01/23 08:56:36;;;;;;;37.67;17.73;;;5.80;99.90;;;;;;5074661;28;20044;-90
2022/01/23 08:59:03;;;;;;;37.47;15.80;;;5.80;99.90;;;;;;5090939;28;20074;-90
2022/01/23 09:01:29;;;;;;;28.48;12.25;;;5.80;99.90;;;;;;5075041;28;20051;-90
2022/01/23 09:03:54;;;;;;;24.92;12.35;;;5.80;99.90;;;;;;5074183;28;20039;-87
2022/01/23 09:06:21;;;;;;;22.88;10.98;;;5.90;99.90;;;;;;5072916;28;20405;-90
2022/01/23 09:08:46;;;;;;;21.95;10.95;;;5.90;99.90;;;;;;5055667;28;20127;-90
2022/01/23 09:11:25;;;;;;;22.95;10.10;;;6.00;99.90;;;;;;5056084;28;20063;-90
2022/01/23 09:14:04;;;;;;;18.58;9.38;;;6.00;99.90;;;;;;5074861;28;20039;-91
2022/01/23 09:16:30;;;;;;;18.58;9.05;;;6.00;99.90;;;;;;5074898;28;20101;-91
2022/01/23 09:18:56;;;;;;;16.55;8.52;;;6.00;99.90;;;;;;5076018;28;20531;-91
2022/01/23 09:21:21;;;;;;;17.38;8.10;;;6.10;99.90;;;;;;5081248;28;20064;-92
2022/01/23 09:23:47;;;;;;;18.08;8.25;;;6.10;99.90;;;;;;5071117;28;20093;-92
2022/01/23 09:26:16;;;;;;;13.15;7.82;;;6.20;99.90;;;;;;5075687;28;20043;-91
2022/01/23 09:28:44;;;;;;;12.88;7.10;;;6.20;99.90;;;;;;5086855;28;20559;-90
2022/01/23 09:31:12;;;;;;;10.27;6.15;;;6.30;99.90;;;;;;5090345;28;20497;-90
2022/01/23 09:33:38;;;;;;;11.75;6.40;;;6.40;99.90;;;;;;5087895;28;20039;-91
2022/01/23 09:36:03;;;;;;;11.50;6.13;;;6.40;99.90;;;;;;5071180;27;20480;-91
2022/01/23 09:38:29;;;;;;;12.38;7.10;;;6.40;99.90;;;;;;5091071;28;20126;-90
2022/01/23 09:40:57;;;;;;;9.90;6.50;;;6.30;99.90;;;;;;5078473;28;20040;-91
2022/01/23 09:43:24;;;;;;;11.50;6.30;;;6.50;99.90;;;;;;5080550;28;20036;-91
2022/01/23 09:45:52;;;;;;;9.32;6.22;;;6.40;99.90;;;;;;5076861;28;20058;-90
2022/01/23 09:48:19;;;;;;;13.88;7.13;;;6.50;99.90;;;;;;5080611;28;20040;-90
2022/01/23 09:50:47;;;;;;;13.10;6.75;;;6.50;99.90;;;;;;5081935;28;20051;-90
2022/01/23 09:53:14;;;;;;;12.05;6.22;;;6.50;99.90;;;;;;5078954;28;20036;-91
2022/01/23 09:55:52;;;;;;;11.38;6.20;;;6.50;99.90;;;;;;5073565;28;20045;-91
2022/01/23 09:58:18;;;;;;;12.30;6.90;;;6.50;99.90;;;;;;5085768;28;20057;-91
2022/01/23 10:00:44;;;;;;;12.35;6.70;;;6.50;99.90;;;;;;5088207;28;20530;-90
2022/01/23 10:03:10;;;;;;;15.30;7.40;;;6.60;99.90;;;;;;5088305;28;20040;-91
2022/01/23 10:05:37;;;;;;;14.30;7.10;;;6.60;99.90;;;;;;5080537;28;20051;-92
2022/01/23 10:08:03;;;;;;;12.82;7.03;;;6.70;99.90;;;;;;5080793;28;20493;-90
2022/01/23 10:10:29;;;;;;;14.23;7.50;;;6.80;99.90;;;;;;5089822;28;20038;-91
2022/01/23 10:12:58;;;;;;;13.63;7.22;;;6.80;99.90;;;;;;5074194;28;20036;-91
2022/01/23 10:15:27;;;;;;;16.90;8.70;;;6.90;99.90;;;;;;5073357;28;20100;-91
2022/01/23 10:17:54;;;;;;;18.55;7.43;;;6.90;99.90;;;;;;5085015;28;20080;-91
2022/01/23 10:20:20;;;;;;;15.82;8.20;;;7.00;99.90;;;;;;5073225;28;20047;-90
2022/01/23 10:22:49;;;;;;;16.83;7.88;;;7.00;99.90;;;;;;5082367;28;20085;-90
2022/01/23 10:25:19;;;;;;;17.75;6.72;;;7.10;99.90;;;;;;5083542;28;20118;-91
2022/01/23 10:27:56;;;;;;;16.10;7.40;;;7.20;99.90;;;;;;5073879;28;20047;-90
2022/01/23 10:30:27;;;;;;;18.45;8.15;;;7.20;99.90;;;;;;5077092;28;20084;-91
2022/01/23 10:33:04;;;;;;;19.20;7.32;;;7.30;99.90;;;;;;5090776;28;20413;-90
2022/01/23 10:35:32;;;;;;;16.88;7.55;;;7.30;99.90;;;;;;5088999;28;20169;-90
2022/01/23 10:38:05;;;;;;;15.07;7.10;;;7.40;99.90;;;;;;5093954;28;20095;-90
2022/01/23 10:40:35;;;;;;;;;;;7.40;99.90;;;;;;5085454;28;20040;-90
2022/01/23 10:48:27;;;;;;;20.08;7.50;;;7.50;99.90;;;;;;5090739;28;20124;-90
2022/01/23 10:51:19;;;;;;;13.93;7.32;;;7.60;99.90;;;;;;5078361;28;20047;-90
2022/01/23 10:53:59;;;;;;;19.08;8.38;;;7.60;99.90;;;;;;5071483;28;20114;-91
2022/01/23 10:56:26;;;;;;;15.68;6.72;;;7.70;99.90;;;;;;5079326;28;20044;-91
2022/01/23 10:59:10;;;;;;;12.82;6.65;;;7.70;99.90;;;;;;5075259;28;20126;-90
2022/01/23 11:01:57;;;;;;;14.10;7.00;;;7.80;99.90;;;;;;5076732;28;20092;-91
2022/01/23 11:04:23;;;;;;;11.90;5.93;;;7.90;99.90;;;;;;5107316;28;20040;-91
2022/01/23 11:07:00;;;;;;;15.10;5.78;;;8.00;99.90;;;;;;5084785;28;20035;-91
2022/01/23 11:09:28;;;;;;;9.52;4.88;;;7.90;99.90;;;;;;5083611;28;20036;-90
2022/01/23 11:12:01;;;;;;;9.65;5.13;;;7.90;99.90;;;;;;5101655;28;20417;-90
2022/01/23 11:17:25;;;;;;;8.68;4.55;;;8.00;99.90;;;;;;5103196;28;20047;-91
2022/01/23 11:19:53;;;;;;;11.82;5.82;;;7.90;99.90;;;;;;5079085;28;20126;-91
2022/01/23 11:22:21;;;;;;;10.75;5.13;;;7.70;99.90;;;;;;5075637;28;20040;-92
2022/01/23 11:24:48;;;;;;;10.75;5.18;;;7.80;99.90;;;;;;5106428;28;20031;-91
2022/01/23 11:27:22;;;;;;;10.68;5.03;;;7.80;99.90;;;;;;5102883;28;20159;-91
2022/01/23 11:30:04;;;;;;;9.30;4.38;;;7.80;99.90;;;;;;5083913;28;20052;-92
2022/01/23 11:32:35;;;;;;;8.88;4.75;;;7.80;99.90;;;;;;5075986;28;20036;-91
2022/01/23 11:35:07;;;;;;;9.80;4.80;;;7.80;99.90;;;;;;5095346;28;20071;-90
2022/01/23 11:37:34;;;;;;;7.72;5.28;;;7.70;99.90;;;;;;5087044;28;20056;-91
2022/01/23 11:40:07;;;;;;;10.57;5.97;;;7.80;99.90;;;;;;5075983;28;20107;-91
2022/01/23 11:51:06;;;;;;;13.75;6.60;;;7.80;99.90;;;;;;5097174;28;20138;-91
2022/01/23 11:53:51;;;;;;;13.23;7.03;;;7.80;99.90;;;;;;5086021;28;20040;-91
2022/01/23 11:56:30;;;;;;;10.48;6.28;;;7.80;99.90;;;;;;5078297;28;20397;-91
2022/01/23 11:59:27;;;;;;;10.95;5.85;;;7.80;99.90;;;;;;5092277;28;20202;-91
2022/01/23 12:02:12;;;;;;;9.73;5.60;;;7.80;99.90;;;;;;5055888;28;20075;-91
2022/01/23 12:04:39;;;;;;;7.93;5.05;;;7.80;99.90;;;;;;5067332;28;20122;-90
2022/01/23 12:07:11;;;;;;;9.73;4.50;;;7.80;99.90;;;;;;5081052;28;20038;-91
2022/01/23 12:09:38;;;;;;;7.63;4.40;;;7.90;99.90;;;;;;5073375;28;20065;-89
2022/01/23 12:12:23;;;;;;;4.78;2.47;;;8.00;99.90;;;;;;5105644;28;20111;-90
2022/01/23 12:17:16;;;;;;;2.75;1.88;;;8.40;99.90;;;;;;5084906;28;20050;-91
2022/01/23 12:19:57;;;;;;;3.45;1.70;;;8.30;99.90;;;;;;5069111;28;20036;-91
2022/01/23 12:22:25;;;;;;;2.20;1.35;;;8.30;99.90;;;;;;5063414;28;20038;-90
2022/01/23 12:24:56;;;;;;;3.95;1.40;;;8.20;99.90;;;;;;5070807;28;20485;-90
2022/01/23 12:27:26;;;;;;;1.13;1.02;;;8.20;99.90;;;;;;5055316;28;20044;-92
2022/01/23 12:30:09;;;;;;;0.90;0.90;;;8.10;99.90;;;;;;5064428;28;20184;-91
2022/01/23 12:32:35;;;;;;;1.42;1.33;;;8.10;99.90;;;;;;5075861;28;20043;-89
2022/01/23 12:35:04;;;;;;;1.75;1.10;;;8.10;99.90;;;;;;5075026;28;20641;-90
2022/01/23 12:38:02;;;;;;;2.03;1.20;;;8.10;99.90;;;;;;5071837;28;20047;-90
2022/01/23 12:40:43;;;;;;;1.50;1.15;;;8.10;99.90;;;;;;5054974;28;20055;-90
2022/01/23 12:43:18;;;;;;;2.40;1.40;;;8.00;99.90;;;;;;5068863;28;20036;-91
2022/01/23 12:45:52;;;;;;;2.95;1.45;;;8.10;99.90;;;;;;5074594;28;20043;-91
2022/01/23 12:48:28;;;;;;;2.33;1.20;;;8.00;99.90;;;;;;5075640;28;20052;-91
2022/01/23 12:51:00;;;;;;;2.10;1.50;;;7.90;99.90;;;;;;5074471;28;20143;-90
2022/01/23 12:53:57;;;;;;;2.60;1.58;;;7.90;99.90;;;;;;5075541;28;20039;-90
2022/01/23 12:56:34;;;;;;;2.97;2.05;;;7.80;99.90;;;;;;5067814;28;20506;-91
2022/01/23 12:59:08;;;;;;;2.50;2.05;;;7.80;99.90;;;;;;5069220;28;20513;-91
2022/01/23 13:01:35;;;;;;;4.10;2.20;;;7.90;99.90;;;;;;5067933;28;20039;-92
2022/01/23 13:04:05;;;;;;;4.15;2.35;;;7.80;99.90;;;;;;5066946;28;20494;-91
2022/01/23 13:06:32;;;;;;;3.40;2.20;;;8.00;99.90;;;;;;5068148;28;20047;-91
2022/01/23 13:09:31;;;;;;;4.97;2.25;;;7.90;99.90;;;;;;5068907;28;20055;-91
2022/01/23 13:12:48;;;;;;;5.38;2.45;;;7.90;99.90;;;;;;5054409;28;20082;-91
2022/01/23 13:18:02;;;;;;;2.42;2.10;;;7.90;99.90;;;;;;5081043;28;20047;-90
2022/01/23 13:27:11;;;;;;;2.30;1.40;;;7.80;99.90;;;;;;5075189;28;20083;-91
2022/01/23 13:35:12;;;;;;;3.25;1.92;;;7.80;99.90;;;;;;5090691;28;20048;-91
2022/01/23 13:37:40;;;;;;;2.92;2.25;;;7.80;99.90;;;;;;5089377;28;20067;-91
2022/01/23 13:40:22;;;;;;;4.47;2.60;;;7.70;99.90;;;;;;5055396;28;20044;-89
2022/01/23 13:48:46;;;;;;;3.90;2.63;;;7.70;99.90;;;;;;5091364;28;20047;-93
2022/01/23 13:59:49;;;;;;;4.57;2.75;;;7.60;99.90;;;;;;5091181;28;20039;-92
2022/01/23 14:02:33;;;;;;;3.22;2.03;;;7.50;99.90;;;;;;5074445;28;20044;-93
2022/01/23 14:05:14;;;;;;;;;;;7.50;99.90;;;;;;5074615;28;20078;-95
2022/01/23 14:08:06;;;;;;;3.25;2.13;;;7.40;99.90;;;;;;5090145;28;19919;-94
2022/01/23 14:10:34;;;;;;;3.88;2.38;;;7.50;99.90;;;;;;5088997;28;20051;-94
2022/01/23 14:13:14;;;;;;;5.30;2.33;;;7.40;99.90;;;;;;5074411;28;20106;-92
2022/01/23 14:15:48;;;;;;;3.58;2.20;;;7.40;99.90;;;;;;5073692;28;20126;-92
2022/01/23 14:18:20;;;;;;;4.13;2.72;;;7.40;99.90;;;;;;5091341;28;20417;-95
2022/01/23 14:21:02;;;;;;;3.72;2.58;;;7.40;99.90;;;;;;5078895;28;20036;-93
2022/01/23 14:23:29;;;;;;;4.55;2.42;;;7.30;99.90;;;;;;5073967;28;20050;-93
2022/01/23 14:25:59;;;;;;;3.97;2.78;;;7.20;99.90;;;;;;5089683;28;20097;-91
2022/01/23 14:28:40;;;;;;;3.08;2.40;;;7.20;99.90;;;;;;5091948;28;20089;-94
2022/01/23 14:31:16;;;;;;;4.65;2.65;;;7.10;99.90;;;;;;5073234;28;20084;-93
2022/01/23 14:33:42;;;;;;;4.03;2.88;;;7.00;99.90;;;;;;5074709;28;20039;-93
2022/01/23 14:36:26;;;;;;;3.97;3.10;;;6.90;99.90;;;;;;5073034;28;20156;-93
2022/01/23 14:39:00;;;;;;;5.20;3.42;;;6.90;99.90;;;;;;5071668;28;20078;-94
2022/01/23 14:41:31;;;;;;;3.55;2.65;;;6.90;99.90;;;;;;5073356;28;20078;-93
2022/01/23 14:43:57;;;;;;;5.00;2.60;;;7.00;99.90;;;;;;5074008;28;20394;-90
2022/01/23 14:46:23;;;;;;;3.85;1.92;;;6.90;99.90;;;;;;5075569;28;20050;-93
2022/01/23 14:48:51;;;;;;;2.63;2.03;;;6.90;99.90;;;;;;5077680;28;20079;-93
2022/01/23 14:51:24;;;;;;;3.45;2.33;;;6.80;99.90;;;;;;5077113;28;20050;-94
2022/01/23 14:53:51;;;;;;;4.20;2.33;;;6.90;99.90;;;;;;5077018;28;20099;-93
2022/01/23 14:56:17;;;;;;;4.68;2.55;;;6.90;99.90;;;;;;5072348;28;20051;-93
2022/01/23 14:58:44;;;;;;;4.05;1.60;;;6.90;99.90;;;;;;5063860;28;20426;-93
2022/01/23 15:01:12;;;;;;;2.40;1.70;;;6.90;99.90;;;;;;5093711;28;20047;-93
2022/01/23 15:03:40;;;;;;;3.33;1.98;;;6.80;99.90;;;;;;5094210;28;20642;-93
2022/01/23 15:06:06;;;;;;;3.78;2.50;;;6.80;99.90;;;;;;5075497;28;20040;-91
2022/01/23 15:08:32;;;;;;;5.53;2.50;;;6.90;99.90;;;;;;5093930;28;20059;-94
2022/01/23 15:11:00;;;;;;;4.70;2.47;;;6.90;99.90;;;;;;5076500;28;20124;-93
2022/01/23 15:13:28;;;;;;;6.25;2.53;;;6.80;99.90;;;;;;5094508;28;20519;-94
2022/01/23 15:15:55;;;;;;;2.60;2.40;;;6.80;99.90;;;;;;5076216;28;20039;-93
2022/01/23 15:18:22;;;;;;;4.20;2.90;;;6.80;99.90;;;;;;5077417;28;20517;-94
2022/01/23 15:20:48;;;;;;;3.60;2.92;;;6.70;99.90;;;;;;5076452;28;20051;-92
2022/01/23 15:23:16;;;;;;;6.90;3.60;;;6.60;99.90;;;;;;5076721;28;20446;-88
2022/01/23 15:25:43;;;;;;;5.20;3.50;;;6.60;99.90;;;;;;5075850;28;20441;-88
2022/01/23 15:28:10;;;;;;;5.32;3.78;;;6.50;99.90;;;;;;5076820;28;20902;-91
2022/01/23 15:30:38;;;;;;;5.53;3.70;;;6.50;99.90;;;;;;5076513;28;20094;-91
2022/01/23 15:33:09;;;;;;;6.00;3.53;;;6.50;99.90;;;;;;5076671;28;20044;-91
2022/01/23 15:35:44;;;;;;;4.25;3.40;;;6.50;99.90;;;;;;5075995;28;20568;-91
2022/01/23 15:38:09;;;;;;;5.35;3.50;;;6.50;99.90;;;;;;5076777;28;20051;-91
2022/01/23 15:40:35;;;;;;;5.25;4.03;;;6.50;99.90;;;;;;5093264;28;20032;-92
2022/01/23 15:43:01;;;;;;;4.55;3.35;;;6.50;99.90;;;;;;5076452;28;20048;-91
2022/01/23 15:45:26;;;;;;;5.10;3.05;;;6.60;99.90;;;;;;5076001;28;20064;-92
2022/01/23 15:47:52;;;;;;;4.20;3.10;;;6.50;99.90;;;;;;5076233;28;20111;-90
2022/01/23 15:50:22;;;;;;;5.38;2.78;;;6.50;99.90;;;;;;5076120;28;20718;-91
2022/01/23 15:52:48;;;;;;;6.38;3.45;;;6.50;99.90;;;;;;5076164;28;20041;-90
2022/01/23 15:55:16;;;;;;;6.88;3.53;;;6.40;99.90;;;;;;5075839;28;20048;-90
2022/01/23 15:57:42;;;;;;;8.52;4.38;;;6.40;99.90;;;;;;5075893;28;20062;-90
2022/01/23 16:00:11;;;;;;;7.60;4.63;;;6.30;99.90;;;;;;5076144;28;20044;-90
2022/01/23 16:02:36;;;;;;;6.10;4.07;;;6.40;99.90;;;;;;5076241;28;20082;-91